Time;durP1;ratioP1;P1;durP2;ratioP2;P2;SDS_P1;SDS_P2;PMS_P1;PMS_P2;Temp;Humidity;BMP_temperature;BMP_pressure;BME280_temperature;BME280_humidity;BME280_pressure;Samples;Min_cycle;Max_cycle;Signal;HPM_P1;HPM_P2
2022/05/01 00:01:06;;;;;;;1.80;1.70;;;19.80;47.60;;;;;;5070959;28;43441;-61
2022/05/01 00:03:35;;;;;;;1.80;1.70;;;19.80;47.60;;;;;;5081528;27;43881;-61
2022/05/01 00:06:08;;;;;;;2.00;1.90;;;19.80;47.60;;;;;;5080224;27;44704;-61
2022/05/01 00:08:40;;;;;;;2.05;1.75;;;19.80;47.60;;;;;;5070997;28;43429;-61
2022/05/01 00:11:08;;;;;;;1.77;1.67;;;19.70;47.60;;;;;;5069443;28;43342;-61
2022/05/01 00:13:43;;;;;;;;;;;19.70;47.60;;;;;;5081734;28;43414;-61
2022/05/01 00:16:12;;;;;;;1.80;1.70;;;19.70;47.70;;;;;;5076260;28;44647;-61
2022/05/01 00:18:40;;;;;;;1.67;1.58;;;19.70;47.80;;;;;;5071103;28;44070;-61
2022/05/01 00:21:08;;;;;;;1.75;1.65;;;19.60;47.70;;;;;;5080839;28;43496;-62
2022/05/01 00:23:35;;;;;;;1.73;1.63;;;19.70;47.80;;;;;;5081856;28;43477;-61
2022/05/01 00:26:05;;;;;;;1.80;1.70;;;19.60;47.70;;;;;;5072809;28;44744;-61
2022/05/01 00:28:36;;;;;;;1.70;1.60;;;19.60;47.70;;;;;;5069493;28;43687;-61
2022/05/01 00:31:05;;;;;;;;;;;19.60;47.80;;;;;;5082077;27;43518;-62
2022/05/01 00:36:26;;;;;;;1.90;1.80;;;19.50;47.80;;;;;;5070657;28;44770;-62
2022/05/01 00:39:05;;;;;;;1.73;1.63;;;19.50;47.70;;;;;;5071031;27;43969;-61
2022/05/01 00:41:36;;;;;;;2.00;1.90;;;19.60;47.80;;;;;;5082119;28;43417;-61
2022/05/01 00:44:08;;;;;;;1.80;1.70;;;19.60;47.90;;;;;;5072847;28;43415;-61
2022/05/01 00:46:40;;;;;;;1.80;1.70;;;19.50;47.80;;;;;;5068272;28;44899;-61
2022/05/01 00:49:11;;;;;;;2.20;2.10;;;19.50;47.80;;;;;;5078293;28;43680;-61
2022/05/01 00:52:08;;;;;;;1.75;1.65;;;19.50;47.80;;;;;;5078553;28;43377;-61
2022/05/01 00:54:39;;;;;;;1.75;1.65;;;19.50;47.70;;;;;;5071695;28;43502;-61
2022/05/01 00:57:07;;;;;;;1.92;1.83;;;19.50;47.80;;;;;;5062611;28;43890;-61
2022/05/01 00:59:37;;;;;;;1.80;1.70;;;19.40;47.80;;;;;;5082207;27;43800;-61
2022/05/01 01:02:06;;;;;;;1.77;1.67;;;19.40;47.80;;;;;;5075107;28;43502;-61
2022/05/01 01:04:34;;;;;;;1.63;1.58;;;19.40;47.80;;;;;;5071878;27;43475;-61
2022/05/01 01:07:03;;;;;;;2.00;1.90;;;19.40;47.90;;;;;;5071707;28;44983;-61
2022/05/01 01:09:31;;;;;;;1.95;1.85;;;19.40;47.90;;;;;;5079581;27;43558;-61
2022/05/01 01:14:45;;;;;;;1.98;1.80;;;19.40;47.80;;;;;;5066693;28;43804;-61
2022/05/01 01:17:12;;;;;;;1.80;1.70;;;19.30;47.80;;;;;;5073859;28;44019;-61
2022/05/01 01:19:40;;;;;;;2.00;1.90;;;19.30;47.80;;;;;;5076403;28;43794;-62
2022/05/01 01:22:09;;;;;;;2.38;2.17;;;19.30;47.90;;;;;;5074031;27;43413;-61
2022/05/01 01:24:39;;;;;;;1.80;1.70;;;19.30;47.90;;;;;;5072877;28;43490;-61
2022/05/01 01:27:08;;;;;;;1.90;1.80;;;19.30;47.90;;;;;;5080084;27;43795;-62
2022/05/01 01:32:26;;;;;;;1.90;1.80;;;19.20;47.90;;;;;;5057435;28;43522;-62
2022/05/01 01:34:55;;;;;;;1.83;1.73;;;19.20;47.90;;;;;;5075269;28;43526;-61
2022/05/01 01:37:24;;;;;;;1.98;1.88;;;19.20;47.90;;;;;;5078756;28;43858;-61
2022/05/01 01:39:53;;;;;;;1.85;1.75;;;19.20;47.90;;;;;;5072151;27;43446;-61
2022/05/01 01:42:21;;;;;;;1.67;1.65;;;19.20;48.00;;;;;;5068381;28;43461;-61
2022/05/01 01:44:50;;;;;;;2.25;2.00;;;19.20;48.00;;;;;;5074169;28;44127;-61
2022/05/01 01:47:18;;;;;;;1.77;1.67;;;19.10;47.90;;;;;;5074817;28;44687;-61
2022/05/01 01:49:45;;;;;;;1.67;1.58;;;19.10;48.00;;;;;;5069621;28;43491;-61
2022/05/01 01:52:13;;;;;;;1.80;1.70;;;19.10;48.00;;;;;;5072842;28;44110;-61
2022/05/01 01:54:42;;;;;;;1.92;1.83;;;19.10;47.90;;;;;;5080651;28;43561;-61
2022/05/01 01:57:09;;;;;;;1.75;1.65;;;19.10;48.00;;;;;;5073955;28;43956;-61
2022/05/01 01:59:37;;;;;;;1.80;1.70;;;19.00;47.90;;;;;;5072548;27;43530;-61
2022/05/01 02:02:04;;;;;;;1.80;1.70;;;19.00;47.90;;;;;;5071291;28;43444;-61
2022/05/01 02:04:32;;;;;;;2.00;1.90;;;19.00;47.90;;;;;;5081531;28;43553;-61
2022/05/01 02:06:59;;;;;;;1.83;1.73;;;19.00;48.00;;;;;;5076468;27;43803;-60
2022/05/01 02:09:26;;;;;;;1.80;1.70;;;19.00;48.00;;;;;;5075248;27;43458;-61
2022/05/01 02:11:54;;;;;;;1.92;1.83;;;19.00;48.00;;;;;;5074722;28;43445;-61
2022/05/01 02:14:21;;;;;;;1.90;1.80;;;19.00;48.00;;;;;;5083907;28;43396;-62
2022/05/01 02:16:50;;;;;;;1.50;1.50;;;19.00;48.00;;;;;;5076895;28;43780;-61
2022/05/01 02:19:17;;;;;;;1.90;1.80;;;18.90;48.00;;;;;;5073189;27;43554;-61
2022/05/01 02:21:44;;;;;;;1.98;1.88;;;18.90;48.00;;;;;;5074520;28;43436;-61
2022/05/01 02:24:12;;;;;;;1.88;1.77;;;18.90;48.00;;;;;;5081847;28;43493;-61
2022/05/01 02:26:40;;;;;;;1.90;1.80;;;18.90;48.00;;;;;;5075949;28;44001;-61
2022/05/01 02:29:10;;;;;;;1.88;1.77;;;18.90;48.10;;;;;;5075058;27;43759;-61
2022/05/01 02:31:43;;;;;;;1.85;1.75;;;18.90;48.10;;;;;;5082520;28;43432;-61
2022/05/01 02:34:11;;;;;;;2.17;2.00;;;18.80;48.00;;;;;;5079191;28;44000;-62
2022/05/01 02:36:39;;;;;;;2.08;1.98;;;18.80;48.00;;;;;;5076192;28;44964;-61
2022/05/01 02:39:07;;;;;;;2.10;1.98;;;18.80;48.00;;;;;;5070981;28;43596;-61
2022/05/01 02:41:34;;;;;;;1.85;1.75;;;18.80;48.10;;;;;;5084950;28;43440;-61
2022/05/01 02:44:02;;;;;;;2.08;1.95;;;18.80;48.10;;;;;;5064383;28;43441;-62
2022/05/01 02:46:32;;;;;;;1.83;1.73;;;18.80;48.10;;;;;;5075550;28;44753;-62
2022/05/01 02:49:00;;;;;;;1.80;1.70;;;18.80;48.30;;;;;;5072085;27;43517;-61
2022/05/01 02:51:27;;;;;;;1.98;1.88;;;18.80;48.10;;;;;;5084540;28;43462;-62
2022/05/01 02:53:55;;;;;;;1.88;1.77;;;18.70;48.10;;;;;;5071794;28;44018;-61
2022/05/01 02:56:22;;;;;;;2.20;2.10;;;18.70;48.10;;;;;;5074067;28;45012;-61
2022/05/01 02:58:50;;;;;;;1.90;1.80;;;18.70;48.10;;;;;;5083147;28;43709;-61
2022/05/01 03:01:17;;;;;;;2.03;1.92;;;18.70;48.10;;;;;;5082067;28;43426;-61
2022/05/01 03:03:45;;;;;;;1.85;1.75;;;18.60;48.10;;;;;;5073681;28;43537;-62
2022/05/01 03:06:12;;;;;;;1.73;1.63;;;18.70;48.20;;;;;;5069680;28;44068;-61
2022/05/01 03:08:39;;;;;;;2.20;2.00;;;18.60;48.20;;;;;;5085302;27;44126;-61
2022/05/01 03:11:06;;;;;;;1.88;1.77;;;18.70;48.20;;;;;;5080196;27;43426;-61
2022/05/01 03:13:34;;;;;;;1.92;1.83;;;18.60;48.20;;;;;;5072191;28;43466;-61
2022/05/01 03:16:01;;;;;;;1.58;1.48;;;18.60;48.20;;;;;;5069959;28;44802;-61
2022/05/01 03:24:00;;;;;;;1.90;1.80;;;18.50;48.20;;;;;;5069845;28;43523;-60
2022/05/01 03:26:28;;;;;;;1.80;1.70;;;18.60;48.30;;;;;;5070672;28;44693;-61
2022/05/01 03:28:55;;;;;;;1.90;1.80;;;18.50;48.20;;;;;;5080944;28;43377;-61
2022/05/01 03:31:24;;;;;;;1.85;1.75;;;18.50;48.30;;;;;;5073476;28;43409;-61
2022/05/01 03:33:55;;;;;;;1.70;1.60;;;18.50;48.30;;;;;;5072836;27;43434;-62
2022/05/01 03:36:22;;;;;;;1.95;1.85;;;18.50;48.30;;;;;;5084189;28;45079;-61
2022/05/01 03:38:49;;;;;;;1.80;1.70;;;18.50;48.20;;;;;;5074972;28;43509;-61
2022/05/01 03:41:17;;;;;;;1.92;1.83;;;18.50;48.20;;;;;;5073022;28;43470;-61
2022/05/01 03:43:44;;;;;;;2.00;1.90;;;18.40;48.20;;;;;;5070058;27;43446;-62
2022/05/01 03:46:13;;;;;;;2.00;1.85;;;18.50;48.30;;;;;;5081876;27;44969;-61
2022/05/01 03:48:40;;;;;;;1.73;1.63;;;18.40;48.20;;;;;;5067618;28;43466;-61
2022/05/01 03:51:08;;;;;;;1.80;1.70;;;18.40;48.20;;;;;;5070468;28;43424;-61
2022/05/01 03:53:36;;;;;;;1.90;1.80;;;18.40;48.30;;;;;;5069120;27;43914;-61
2022/05/01 03:56:05;;;;;;;1.90;1.80;;;18.40;48.30;;;;;;5082014;28;43802;-62
2022/05/01 03:58:33;;;;;;;2.10;2.00;;;18.40;48.30;;;;;;5067969;28;43542;-62
2022/05/01 04:01:00;;;;;;;1.83;1.73;;;18.40;48.30;;;;;;5071252;28;43491;-61
2022/05/01 04:03:28;;;;;;;2.00;1.90;;;18.40;48.30;;;;;;5082792;27;43587;-62
2022/05/01 04:05:56;;;;;;;1.60;1.50;;;18.40;48.30;;;;;;5079427;28;43952;-61
2022/05/01 04:08:24;;;;;;;1.70;1.60;;;18.40;48.40;;;;;;5070221;28;43658;-61
2022/05/01 04:10:51;;;;;;;2.03;1.80;;;18.30;48.30;;;;;;5070337;28;43410;-61
2022/05/01 04:13:18;;;;;;;1.50;1.50;;;18.30;48.30;;;;;;5080572;28;43447;-61
2022/05/01 04:15:46;;;;;;;1.80;1.70;;;18.30;48.40;;;;;;5078552;27;44962;-62
2022/05/01 04:18:13;;;;;;;1.83;1.73;;;18.30;48.30;;;;;;5069583;28;43423;-61
2022/05/01 04:20:41;;;;;;;1.75;1.65;;;18.30;48.30;;;;;;5080391;28;43436;-61
2022/05/01 04:23:09;;;;;;;2.10;1.90;;;18.20;48.30;;;;;;5078570;28;43462;-61
2022/05/01 04:25:36;;;;;;;1.70;1.60;;;18.20;48.30;;;;;;5075543;27;44678;-62
2022/05/01 04:28:05;;;;;;;1.95;1.70;;;18.30;48.40;;;;;;5069022;28;43415;-61
2022/05/01 04:30:33;;;;;;;1.65;1.55;;;18.20;48.30;;;;;;5079734;28;43504;-61
2022/05/01 04:33:02;;;;;;;1.90;1.80;;;18.20;48.40;;;;;;5080133;27;43475;-61
2022/05/01 04:35:42;;;;;;;2.10;1.70;;;18.20;48.30;;;;;;5074774;28;43925;-62
2022/05/01 04:38:15;;;;;;;1.75;1.65;;;18.20;48.40;;;;;;5070153;28;43478;-61
2022/05/01 04:40:46;;;;;;;1.92;1.80;;;18.20;48.30;;;;;;5079212;28;43457;-61
2022/05/01 04:43:17;;;;;;;;;;;18.20;48.40;;;;;;5079559;28;43399;-61
2022/05/01 04:45:46;;;;;;;1.63;1.52;;;18.20;48.40;;;;;;5070762;28;44949;-62
2022/05/01 04:48:15;;;;;;;1.63;1.63;;;18.10;48.50;;;;;;5076344;27;44063;-61
2022/05/01 04:50:43;;;;;;;1.92;1.80;;;18.10;49.10;;;;;;5081243;28;43451;-61
2022/05/01 04:53:12;;;;;;;1.83;1.70;;;18.10;48.50;;;;;;5078297;27;43611;-61
2022/05/01 04:55:42;;;;;;;1.80;1.70;;;18.10;48.40;;;;;;5068857;28;43817;-61
2022/05/01 04:58:10;;;;;;;1.60;1.50;;;18.10;48.40;;;;;;5078488;28;43444;-61
2022/05/01 05:00:38;;;;;;;1.92;1.80;;;18.10;48.50;;;;;;5080172;28;43479;-61
2022/05/01 05:03:06;;;;;;;1.52;1.42;;;18.10;48.50;;;;;;5075206;27;44010;-61
2022/05/01 05:05:37;;;;;;;1.60;1.50;;;18.10;48.40;;;;;;5067975;28;44876;-61
2022/05/01 05:10:51;;;;;;;1.90;1.52;;;18.00;48.50;;;;;;5080769;28;43392;-61
2022/05/01 05:13:27;;;;;;;;;;;18.00;48.50;;;;;;5065865;28;44068;-61
2022/05/01 05:15:59;;;;;;;1.70;1.60;;;18.00;48.60;;;;;;5080507;28;43783;-60
2022/05/01 05:18:28;;;;;;;2.08;1.98;;;18.00;48.60;;;;;;5059383;28;44001;-59
2022/05/01 05:20:56;;;;;;;3.10;2.90;;;18.00;48.60;;;;;;5078056;28;43605;-60
2022/05/01 05:23:23;;;;;;;3.38;2.88;;;18.00;48.80;;;;;;5070302;28;43529;-60
2022/05/01 05:25:51;;;;;;;3.30;3.10;;;18.00;48.70;;;;;;5068079;27;44688;-59
2022/05/01 05:28:18;;;;;;;3.00;2.67;;;18.00;48.60;;;;;;5081273;28;43887;-60
2022/05/01 05:30:48;;;;;;;3.20;3.00;;;18.10;48.60;;;;;;5075760;28;43513;-60
2022/05/01 05:33:17;;;;;;;2.75;2.60;;;18.10;48.40;;;;;;5069136;28;43474;-60
2022/05/01 05:35:46;;;;;;;3.47;2.70;;;18.20;48.40;;;;;;5079385;27;43751;-59
2022/05/01 05:38:13;;;;;;;2.72;2.60;;;18.20;48.40;;;;;;5078451;27;43368;-60
2022/05/01 05:40:41;;;;;;;2.80;2.60;;;18.20;48.30;;;;;;5069772;28;43411;-60
2022/05/01 05:43:09;;;;;;;2.70;2.50;;;18.30;48.30;;;;;;5067851;28;43438;-60
2022/05/01 05:45:37;;;;;;;2.70;2.50;;;18.30;48.20;;;;;;5077426;27;43827;-58
2022/05/01 05:48:06;;;;;;;2.80;2.40;;;18.30;48.20;;;;;;5075198;27;43413;-59
2022/05/01 05:50:33;;;;;;;4.05;2.80;;;18.40;48.20;;;;;;5068675;28;43529;-60
2022/05/01 05:53:00;;;;;;;2.70;2.50;;;18.40;48.30;;;;;;5066798;28;43436;-60
2022/05/01 05:55:33;;;;;;;2.65;2.45;;;18.40;48.30;;;;;;5075335;28;43795;-61
2022/05/01 05:58:02;;;;;;;3.00;2.80;;;18.50;48.30;;;;;;5076825;27;43543;-60
2022/05/01 06:00:30;;;;;;;2.50;2.30;;;18.50;48.20;;;;;;5068667;28;43394;-61
2022/05/01 06:02:57;;;;;;;2.35;2.20;;;18.60;48.20;;;;;;5066060;28;44005;-61
2022/05/01 06:05:25;;;;;;;2.50;2.30;;;18.60;48.10;;;;;;5078087;28;44061;-60
2022/05/01 06:07:52;;;;;;;2.50;2.30;;;18.70;48.00;;;;;;5074514;28;43691;-60
2022/05/01 06:10:21;;;;;;;2.50;2.30;;;18.80;48.00;;;;;;5067452;28;43389;-60
2022/05/01 06:12:49;;;;;;;2.70;2.50;;;18.80;47.90;;;;;;5078660;28;43485;-60
2022/05/01 06:15:19;;;;;;;2.60;2.42;;;18.90;47.90;;;;;;5077491;27;44998;-61
2022/05/01 06:17:46;;;;;;;2.65;2.38;;;19.00;47.90;;;;;;5068638;28;43488;-61
2022/05/01 06:20:14;;;;;;;2.33;2.22;;;19.00;47.70;;;;;;5066539;28;43453;-61
2022/05/01 06:22:41;;;;;;;2.63;2.40;;;19.10;47.70;;;;;;5077313;28;43530;-60
2022/05/01 06:25:09;;;;;;;2.38;2.28;;;19.10;47.70;;;;;;5076479;28;44949;-59
2022/05/01 06:27:36;;;;;;;2.22;2.13;;;19.10;47.60;;;;;;5065232;28;44015;-60
2022/05/01 06:30:04;;;;;;;2.80;2.20;;;19.20;47.60;;;;;;5072204;28;43454;-62
2022/05/01 06:32:33;;;;;;;2.15;2.00;;;19.30;47.50;;;;;;5079443;28;43521;-61
2022/05/01 06:35:02;;;;;;;2.55;2.35;;;19.30;47.50;;;;;;5075751;27;44674;-61
2022/05/01 06:37:34;;;;;;;3.70;2.33;;;19.40;47.40;;;;;;5062917;28;44140;-61
2022/05/01 06:40:03;;;;;;;3.50;2.20;;;19.40;47.50;;;;;;5073920;28;43405;-61
2022/05/01 06:42:33;;;;;;;2.38;2.15;;;19.50;47.50;;;;;;5077859;28;43627;-61
2022/05/01 06:45:00;;;;;;;2.60;2.00;;;19.60;47.50;;;;;;5074746;28;43823;-61
2022/05/01 06:47:28;;;;;;;2.47;2.10;;;19.60;47.30;;;;;;5070769;28;43804;-61
2022/05/01 06:49:55;;;;;;;2.55;2.10;;;19.70;47.40;;;;;;5076597;28;43442;-60
2022/05/01 06:52:24;;;;;;;2.70;1.95;;;19.70;47.20;;;;;;5075329;28;43483;-61
2022/05/01 06:54:54;;;;;;;1.83;1.73;;;19.80;47.30;;;;;;5076169;28;43772;-61
2022/05/01 06:57:22;;;;;;;2.92;1.80;;;19.80;47.20;;;;;;5068832;28;43462;-60
2022/05/01 06:59:49;;;;;;;2.88;1.80;;;19.80;47.30;;;;;;5077781;28;43433;-62
2022/05/01 07:02:17;;;;;;;1.70;1.60;;;19.80;47.10;;;;;;5079929;27;43624;-60
2022/05/01 07:04:44;;;;;;;4.35;1.80;;;19.90;47.30;;;;;;5077554;28;44805;-61
2022/05/01 07:07:12;;;;;;;2.28;1.90;;;20.00;47.10;;;;;;5073764;28;43477;-61
2022/05/01 07:09:39;;;;;;;2.08;1.73;;;20.10;47.10;;;;;;5080707;28;43519;-61
2022/05/01 07:12:10;;;;;;;3.15;1.60;;;20.10;47.00;;;;;;5078691;27;43512;-61
2022/05/01 07:14:39;;;;;;;2.00;1.90;;;20.10;47.10;;;;;;5073840;27;44222;-62
2022/05/01 07:17:07;;;;;;;3.05;1.80;;;20.20;47.20;;;;;;5076399;28;43430;-62
2022/05/01 07:19:34;;;;;;;2.13;2.00;;;20.30;47.00;;;;;;5072025;28;43474;-61
2022/05/01 07:22:02;;;;;;;2.10;1.55;;;20.40;47.10;;;;;;5076347;27;43538;-61
2022/05/01 07:24:29;;;;;;;1.77;1.60;;;20.60;46.80;;;;;;5074054;27;43779;-61
2022/05/01 07:26:57;;;;;;;4.53;1.88;;;20.70;46.60;;;;;;5070216;28;43938;-62
2022/05/01 07:29:24;;;;;;;2.20;1.80;;;20.90;46.50;;;;;;5072162;27;43513;-61
2022/05/01 07:31:52;;;;;;;4.07;1.67;;;21.10;46.30;;;;;;5073520;28;43487;-61
2022/05/01 07:34:19;;;;;;;6.80;2.08;;;21.20;46.00;;;;;;5074640;28;44717;-61
2022/05/01 07:36:47;;;;;;;1.83;1.73;;;21.30;45.80;;;;;;5081023;28;43776;-61
2022/05/01 07:39:14;;;;;;;5.45;1.70;;;21.50;45.70;;;;;;5072696;28;43500;-61
2022/05/01 07:41:41;;;;;;;3.92;1.88;;;21.60;45.50;;;;;;5075614;28;43557;-61
2022/05/01 07:44:11;;;;;;;1.75;1.55;;;21.70;45.20;;;;;;5072253;28;44040;-61
2022/05/01 07:46:39;;;;;;;2.90;1.60;;;21.80;45.10;;;;;;5082860;27;43919;-62
2022/05/01 07:49:09;;;;;;;1.85;1.75;;;21.90;45.00;;;;;;5073115;28;43462;-61
2022/05/01 07:51:38;;;;;;;2.53;1.63;;;22.00;44.80;;;;;;5072858;28;43409;-61
2022/05/01 07:54:06;;;;;;;1.70;1.60;;;22.10;44.80;;;;;;5072676;28;44696;-61
2022/05/01 07:56:34;;;;;;;1.65;1.55;;;22.10;44.60;;;;;;5080071;28;43687;-62
2022/05/01 07:59:02;;;;;;;1.70;1.60;;;22.20;44.60;;;;;;5075546;28;43394;-62
2022/05/01 08:01:30;;;;;;;2.15;1.60;;;22.20;44.50;;;;;;5073336;28;43490;-62
2022/05/01 08:06:43;;;;;;;1.73;1.63;;;22.20;44.50;;;;;;5075801;28;43441;-62
2022/05/01 08:09:11;;;;;;;1.85;1.50;;;22.20;44.50;;;;;;5075453;27;43372;-62
2022/05/01 08:11:38;;;;;;;2.53;1.58;;;22.20;44.60;;;;;;5072175;27;43647;-62
2022/05/01 08:14:08;;;;;;;1.70;1.60;;;22.10;44.70;;;;;;5083334;28;44095;-63
2022/05/01 08:16:36;;;;;;;2.83;1.57;;;22.10;44.80;;;;;;5071263;28;43430;-62
2022/05/01 08:21:52;;;;;;;2.40;1.48;;;22.00;44.80;;;;;;5079709;28;43519;-62
2022/05/01 08:24:20;;;;;;;2.33;1.50;;;22.10;45.00;;;;;;5075834;28;43796;-63
2022/05/01 08:26:48;;;;;;;1.77;1.65;;;22.10;45.10;;;;;;5071022;28;43687;-63
2022/05/01 08:29:17;;;;;;;2.47;1.58;;;22.20;45.10;;;;;;5073787;28;43477;-62
2022/05/01 08:31:48;;;;;;;1.92;1.60;;;22.20;45.10;;;;;;5080201;28;43511;-62
2022/05/01 08:34:17;;;;;;;2.47;1.38;;;22.30;45.10;;;;;;5075093;28;43798;-63
2022/05/01 08:36:45;;;;;;;2.55;1.33;;;22.30;45.10;;;;;;5073944;27;44079;-62
2022/05/01 08:39:13;;;;;;;4.18;1.58;;;22.40;45.10;;;;;;5069701;28;43335;-62
2022/05/01 08:41:40;;;;;;;3.00;1.77;;;22.50;45.30;;;;;;5092994;27;43641;-62
2022/05/01 08:44:14;;;;;;;2.33;1.42;;;22.50;44.90;;;;;;5072123;28;45036;-62
2022/05/01 08:47:10;;;;;;;3.60;1.60;;;22.60;44.90;;;;;;5072521;27;43987;-62
2022/05/01 08:49:39;;;;;;;5.13;1.40;;;22.60;44.90;;;;;;5072477;28;43482;-61
2022/05/01 08:52:08;;;;;;;4.15;1.50;;;22.80;44.80;;;;;;5077136;28;43467;-61
2022/05/01 08:54:38;;;;;;;3.17;1.55;;;22.80;44.70;;;;;;5074678;27;45071;-62
2022/05/01 08:57:06;;;;;;;3.08;1.70;;;22.90;44.60;;;;;;5053654;28;43643;-61
2022/05/01 08:59:35;;;;;;;5.60;1.60;;;22.90;44.50;;;;;;5074084;28;43388;-61
2022/05/01 09:02:03;;;;;;;2.08;1.70;;;23.00;44.70;;;;;;5073612;28;43489;-62
2022/05/01 09:04:31;;;;;;;1.73;1.40;;;23.00;44.60;;;;;;5072928;28;44038;-62
2022/05/01 09:07:01;;;;;;;2.50;1.40;;;23.00;44.80;;;;;;5074505;28;43501;-62
2022/05/01 09:09:29;;;;;;;4.85;1.45;;;23.00;44.70;;;;;;5078003;28;43430;-61
2022/05/01 09:14:42;;;;;;;5.13;1.30;;;23.00;44.70;;;;;;5062647;28;44032;-61
2022/05/01 09:17:17;;;;;;;2.80;1.40;;;22.90;45.10;;;;;;5054708;28;43550;-61
2022/05/01 09:19:50;;;;;;;2.15;1.60;;;22.90;45.30;;;;;;5077594;28;43509;-61
2022/05/01 09:22:19;;;;;;;4.55;1.50;;;22.80;45.20;;;;;;5068570;28;43415;-61
2022/05/01 09:24:54;;;;;;;1.58;1.20;;;22.70;44.90;;;;;;5066847;28;44712;-61
2022/05/01 09:27:31;;;;;;;3.10;1.40;;;22.70;45.20;;;;;;5077717;28;43686;-61
2022/05/01 09:30:16;;;;;;;3.03;1.35;;;22.60;45.30;;;;;;5078377;28;43568;-61
2022/05/01 09:32:44;;;;;;;2.67;1.23;;;22.60;45.60;;;;;;5068850;28;43469;-61
2022/05/01 09:35:35;;;;;;;1.40;1.30;;;22.60;45.40;;;;;;5077922;28;44792;-61
2022/05/01 09:38:18;;;;;;;2.83;1.17;;;22.50;45.30;;;;;;5059863;28;43490;-62
2022/05/01 09:40:48;;;;;;;2.10;1.10;;;22.50;45.40;;;;;;5068620;28;43523;-61
2022/05/01 09:43:46;;;;;;;1.80;1.00;;;22.50;45.40;;;;;;5070211;28;43545;-62
2022/05/01 09:46:29;;;;;;;2.17;1.10;;;22.40;45.60;;;;;;5062977;28;45142;-61
2022/05/01 09:49:02;;;;;;;2.88;1.52;;;22.30;45.70;;;;;;5069038;27;43979;-61
2022/05/01 09:51:32;;;;;;;2.83;1.63;;;22.30;45.80;;;;;;5073520;28;43521;-61
2022/05/01 09:54:02;;;;;;;2.85;1.70;;;22.30;46.00;;;;;;5070728;28;43562;-61
2022/05/01 09:56:47;;;;;;;3.03;1.77;;;22.30;46.10;;;;;;5070897;27;44075;-61
2022/05/01 09:59:16;;;;;;;2.08;1.90;;;22.30;46.10;;;;;;5068644;28;46197;-62
2022/05/01 10:01:58;;;;;;;3.90;1.98;;;22.30;46.30;;;;;;5065132;28;43425;-61
2022/05/01 10:04:26;;;;;;;1.80;1.70;;;22.30;46.10;;;;;;5073854;28;43506;-62
2022/05/01 10:06:55;;;;;;;3.40;2.00;;;22.30;45.90;;;;;;5070245;28;44378;-61
2022/05/01 10:09:28;;;;;;;3.90;1.80;;;22.40;46.00;;;;;;5070446;27;43443;-62
2022/05/01 10:12:03;;;;;;;3.47;1.70;;;22.40;46.10;;;;;;5068740;28;43530;-61
2022/05/01 10:14:30;;;;;;;3.10;2.03;;;22.30;46.10;;;;;;5075084;28;43511;-61
2022/05/01 10:16:58;;;;;;;2.10;1.90;;;22.30;46.10;;;;;;5073405;28;45270;-61
2022/05/01 10:19:25;;;;;;;2.05;1.80;;;22.30;46.00;;;;;;5072990;28;43410;-62
2022/05/01 10:21:56;;;;;;;1.90;1.70;;;22.30;46.00;;;;;;5073231;28;43430;-62
2022/05/01 10:24:24;;;;;;;2.10;2.00;;;22.30;46.10;;;;;;5076663;28;43532;-61
2022/05/01 10:27:05;;;;;;;1.70;1.60;;;22.30;46.20;;;;;;5073699;27;44696;-61
2022/05/01 10:32:20;;;;;;;;;;;22.30;46.10;;;;;;5068003;28;43707;-62
2022/05/01 10:33:03;;;;;;;2.03;1.70;;;22.30;46.30;;;;;;5079978;28;43475;-62
2022/05/01 10:36:04;;;;;;;3.30;1.60;;;22.30;46.20;;;;;;5069282;28;43510;-62
2022/05/01 10:38:51;;;;;;;1.90;1.80;;;22.20;46.10;;;;;;5076255;28;44679;-62
2022/05/01 10:41:18;;;;;;;4.15;1.48;;;22.30;46.20;;;;;;5082666;28;43521;-62
2022/05/01 10:43:59;;;;;;;3.40;1.80;;;22.30;46.30;;;;;;5071917;28;43438;-62
2022/05/01 10:46:30;;;;;;;1.70;1.60;;;22.40;46.20;;;;;;5072226;28;43413;-62
2022/05/01 10:49:02;;;;;;;2.23;2.03;;;22.50;46.00;;;;;;5071921;28;43798;-62
2022/05/01 10:51:34;;;;;;;1.48;1.38;;;22.60;45.90;;;;;;5083786;28;43769;-61
2022/05/01 10:54:14;;;;;;;2.35;1.50;;;22.70;45.90;;;;;;5072498;28;43505;-62
2022/05/01 10:56:59;;;;;;;3.13;1.38;;;22.80;45.80;;;;;;5064947;28;43438;-61
2022/05/01 10:59:39;;;;;;;1.60;1.50;;;22.90;45.40;;;;;;5078585;28;45258;-62
2022/05/01 11:02:24;;;;;;;2.67;1.42;;;23.10;45.30;;;;;;5062246;28;43466;-62
2022/05/01 11:04:54;;;;;;;1.52;1.33;;;23.20;45.10;;;;;;5068418;28;43476;-62
2022/05/01 11:07:24;;;;;;;1.65;1.17;;;23.30;45.00;;;;;;5079685;28;43527;-62
2022/05/01 11:09:51;;;;;;;1.30;1.20;;;23.40;45.10;;;;;;5093753;27;44034;-62
2022/05/01 11:12:22;;;;;;;1.67;1.50;;;23.40;44.80;;;;;;5078541;28;43479;-61
2022/05/01 11:15:02;;;;;;;1.95;1.10;;;23.50;44.70;;;;;;5072556;28;43424;-62
2022/05/01 11:17:50;;;;;;;1.55;1.40;;;23.50;44.70;;;;;;5081020;28;43454;-62
2022/05/01 11:20:21;;;;;;;1.42;1.20;;;23.50;45.00;;;;;;5062840;28;44668;-62
2022/05/01 11:22:48;;;;;;;;;;;23.50;45.20;;;;;;5074602;28;43435;-62
2022/05/01 11:25:39;;;;;;;2.38;1.33;;;23.50;44.90;;;;;;5053720;28;43579;-62
2022/05/01 11:28:06;;;;;;;3.00;1.48;;;23.40;45.10;;;;;;5069213;28;43997;-62
2022/05/01 11:30:38;;;;;;;2.13;1.25;;;23.40;45.20;;;;;;5072489;28;43979;-62
2022/05/01 11:33:12;;;;;;;2.22;1.42;;;23.40;45.00;;;;;;5071284;28;43762;-62
2022/05/01 11:35:57;;;;;;;2.45;1.67;;;23.40;45.20;;;;;;5061033;28;43576;-62
2022/05/01 11:38:38;;;;;;;1.50;1.23;;;23.30;44.90;;;;;;5077821;27;43452;-62
2022/05/01 11:41:06;;;;;;;1.40;1.30;;;23.30;44.80;;;;;;5064855;28;44634;-62
2022/05/01 11:43:35;;;;;;;1.65;1.50;;;23.30;44.90;;;;;;5070945;28;44043;-62
2022/05/01 11:46:04;;;;;;;1.48;1.20;;;23.30;44.90;;;;;;5078899;28;43458;-61
2022/05/01 11:48:32;;;;;;;1.60;1.50;;;23.20;44.90;;;;;;5085650;27;43558;-62
2022/05/01 11:50:59;;;;;;;1.42;1.33;;;23.20;44.90;;;;;;5072858;28;43677;-62
2022/05/01 11:53:32;;;;;;;1.83;1.13;;;23.20;45.00;;;;;;5070744;27;43432;-62
2022/05/01 12:04:37;;;;;;;1.30;1.20;;;23.00;45.10;;;;;;5075882;28;43549;-61
2022/05/01 12:07:15;;;;;;;1.40;1.30;;;23.00;45.10;;;;;;5077409;27;43573;-61
2022/05/01 12:09:45;;;;;;;1.30;1.20;;;22.90;45.20;;;;;;5072297;27;43545;-61
2022/05/01 12:12:16;;;;;;;2.60;1.27;;;22.90;45.30;;;;;;5070838;28;44054;-61
2022/05/01 12:14:44;;;;;;;1.33;1.23;;;22.80;45.20;;;;;;5066871;28;43531;-61
2022/05/01 12:17:14;;;;;;;1.25;1.15;;;22.80;45.30;;;;;;5063857;27;44112;-61
2022/05/01 12:19:43;;;;;;;1.15;1.05;;;22.80;45.40;;;;;;5065559;28;43573;-62
2022/05/01 12:22:13;;;;;;;1.38;1.27;;;22.90;45.50;;;;;;5076933;28;43792;-61
2022/05/01 12:24:42;;;;;;;1.00;1.00;;;22.90;45.40;;;;;;5072190;28;43530;-60
2022/05/01 12:27:10;;;;;;;1.40;1.30;;;22.90;45.30;;;;;;5064752;28;43434;-61
2022/05/01 12:29:41;;;;;;;1.95;1.08;;;22.90;45.30;;;;;;5061333;28;43466;-61
2022/05/01 12:32:14;;;;;;;1.65;1.30;;;22.90;45.40;;;;;;5076533;28;45447;-61
2022/05/01 12:34:44;;;;;;;1.83;1.30;;;22.90;45.30;;;;;;5091700;27;43456;-61
2022/05/01 12:37:29;;;;;;;1.52;1.42;;;22.90;45.40;;;;;;5068712;28;43459;-61
2022/05/01 12:39:59;;;;;;;1.25;1.13;;;22.80;45.30;;;;;;5064635;28;43423;-61
2022/05/01 12:45:18;;;;;;;1.90;1.13;;;22.80;45.40;;;;;;5075089;28;43481;-61
2022/05/01 12:47:50;;;;;;;1.30;1.30;;;22.80;45.50;;;;;;5069887;28;43431;-61
2022/05/01 12:50:21;;;;;;;1.95;1.30;;;22.80;45.50;;;;;;5082074;27;43410;-61
2022/05/01 12:52:50;;;;;;;1.70;1.20;;;22.80;45.50;;;;;;5079564;28;44762;-61
2022/05/01 12:55:27;;;;;;;3.35;1.30;;;22.80;45.50;;;;;;5071650;27;44000;-61
2022/05/01 12:57:57;;;;;;;1.20;1.10;;;22.80;45.60;;;;;;5078851;28;43513;-62
2022/05/01 13:00:35;;;;;;;1.23;1.10;;;22.80;45.60;;;;;;5072183;28;44058;-61
2022/05/01 13:03:25;;;;;;;1.67;1.00;;;22.80;45.60;;;;;;5076546;28;44688;-62
2022/05/01 13:05:58;;;;;;;1.20;1.10;;;22.70;45.70;;;;;;5068634;28;44102;-62
2022/05/01 13:08:27;;;;;;;1.48;1.10;;;22.70;45.70;;;;;;5068523;28;43450;-62
2022/05/01 13:11:15;;;;;;;1.38;1.23;;;22.70;45.70;;;;;;5079255;28;43627;-61
2022/05/01 13:13:52;;;;;;;2.28;1.10;;;22.70;45.80;;;;;;5073220;28;43802;-61
2022/05/01 13:16:22;;;;;;;1.15;1.00;;;22.70;45.90;;;;;;5068417;28;43456;-61
2022/05/01 13:18:52;;;;;;;1.13;0.95;;;22.70;45.90;;;;;;5083180;27;43437;-61
2022/05/01 13:21:21;;;;;;;1.13;1.08;;;22.70;45.90;;;;;;5066880;27;43494;-61
2022/05/01 13:23:51;;;;;;;1.70;1.15;;;22.70;45.80;;;;;;5068988;28;43790;-61
2022/05/01 13:26:19;;;;;;;0.82;0.82;;;22.70;45.90;;;;;;5059152;28;43451;-61
2022/05/01 13:28:48;;;;;;;1.33;1.23;;;22.70;46.00;;;;;;5080726;28;43533;-61
2022/05/01 13:31:17;;;;;;;1.52;1.15;;;22.70;45.90;;;;;;5072320;28;43676;-61
2022/05/01 13:33:44;;;;;;;0.80;0.80;;;22.70;46.00;;;;;;5070789;27;43807;-61
2022/05/01 13:36:12;;;;;;;1.27;1.17;;;22.70;46.00;;;;;;5080283;28;43476;-61
2022/05/01 13:38:40;;;;;;;1.08;1.08;;;22.70;46.00;;;;;;5074685;28;44145;-61
2022/05/01 13:46:40;;;;;;;1.23;1.13;;;22.70;46.00;;;;;;5069516;28;43422;-62